createdAt,value
2023-08-15T00:00:22.451Z,19.1
2023-08-15T00:02:26.429Z,19.1
2023-08-15T00:04:33.167Z,19.2
2023-08-15T00:08:40.944Z,19.1
2023-08-15T00:12:48.815Z,19.2
2023-08-15T00:19:03.405Z,19.3
2023-08-15T00:23:11.240Z,19.3
2023-08-15T00:25:15.158Z,19.2
2023-08-15T00:27:19.306Z,19.3
2023-08-15T00:29:22.987Z,19.2
2023-08-15T00:31:26.939Z,19.2
2023-08-15T00:37:41.508Z,19.1
2023-08-15T00:39:45.409Z,19.1
2023-08-15T00:41:49.344Z,19
2023-08-15T00:43:53.234Z,19
2023-08-15T00:45:57.192Z,18.9
2023-08-15T00:48:03.966Z,18.9
2023-08-15T00:50:07.812Z,18.9
2023-08-15T00:52:11.748Z,18.9
2023-08-15T00:56:45.196Z,19
2023-08-15T00:58:49.105Z,18.9
2023-08-15T01:00:55.874Z,18.9
2023-08-15T01:05:03.686Z,19
2023-08-15T01:09:11.534Z,19
2023-08-15T01:21:37.865Z,18.9
2023-08-15T01:27:49.610Z,18.8
2023-08-15T01:34:04.173Z,18.8
2023-08-15T01:42:19.858Z,18.6
2023-08-15T01:44:26.578Z,18.5
2023-08-15T01:46:30.507Z,18.6
2023-08-15T01:48:34.434Z,18.6
2023-08-15T01:49:37.811Z,18.6
2023-08-15T01:55:49.556Z,18.7
2023-08-15T02:02:04.143Z,18.8
2023-08-15T02:14:30.466Z,19
2023-08-15T02:16:34.364Z,19.1
2023-08-15T02:18:41.483Z,19.2
2023-08-15T02:20:42.213Z,19.3
2023-08-15T02:22:46.127Z,19.4
2023-08-15T02:24:50.053Z,19.4
2023-08-15T02:26:56.797Z,19.5
2023-08-15T02:29:00.764Z,19.5
2023-08-15T02:33:08.618Z,19.5
2023-08-15T02:35:12.489Z,19.5
2023-08-15T02:37:16.469Z,19.5
2023-08-15T02:39:20.325Z,19.4
2023-08-15T02:41:27.060Z,19.4
2023-08-15T02:43:30.954Z,19.4
2023-08-15T02:45:34.892Z,19.4
2023-08-15T02:46:38.330Z,19.4
2023-08-15T02:48:42.172Z,19.5
2023-08-15T02:50:46.072Z,19.5
2023-08-15T02:52:49.999Z,19.5
2023-08-15T02:54:56.719Z,19.4
2023-08-15T03:01:10.009Z,19.3
2023-08-15T03:03:13.861Z,19.2
2023-08-15T03:05:17.767Z,19.2
2023-08-15T03:07:21.963Z,19.1
2023-08-15T03:09:28.381Z,19.1
2023-08-15T03:11:32.296Z,19
2023-08-15T03:15:40.109Z,19
2023-08-15T03:26:02.530Z,18.9
2023-08-15T03:36:22.081Z,18.7
2023-08-15T03:38:28.817Z,18.6
2023-08-15T03:42:36.656Z,18.6
2023-08-15T03:49:51.752Z,18.5
2023-08-15T03:51:58.497Z,18.5
2023-08-15T03:56:06.337Z,18.4
2023-08-15T03:58:10.232Z,18.4
2023-08-15T04:06:28.725Z,18.2
2023-08-15T04:08:32.635Z,18.2
2023-08-15T04:14:44.396Z,18.1
2023-08-15T04:16:49.193Z,18
2023-08-15T04:18:52.237Z,18
2023-08-15T04:20:58.998Z,17.9
2023-08-15T04:23:02.914Z,17.9
2023-08-15T04:25:06.819Z,17.8
2023-08-15T04:27:10.744Z,17.9
2023-08-15T04:29:14.659Z,17.7
2023-08-15T04:31:18.582Z,17.7
2023-08-15T04:33:22.477Z,17.7
2023-08-15T04:35:29.257Z,17.7
2023-08-15T04:37:33.153Z,17.7
2023-08-15T04:39:37.065Z,17.7
2023-08-15T04:42:06.771Z,17.6
2023-08-15T04:44:10.668Z,17.6
2023-08-15T04:48:21.327Z,17.5
2023-08-15T04:50:25.252Z,17.5
2023-08-15T04:52:29.179Z,17.5
2023-08-15T04:54:33.100Z,17.5
2023-08-15T04:56:37.003Z,17.4
2023-08-15T04:58:40.937Z,17.4
2023-08-15T05:00:44.832Z,17.4
2023-08-15T05:02:51.654Z,17.3
2023-08-15T05:04:55.605Z,17.4
2023-08-15T05:06:59.419Z,17.3
2023-08-15T05:09:03.360Z,17.3
2023-08-15T05:13:11.183Z,17.3
2023-08-15T05:15:15.119Z,17.4
2023-08-15T05:17:22.124Z,17.5
2023-08-15T05:19:25.769Z,17.4
2023-08-15T05:21:29.704Z,17.4
2023-08-15T05:23:33.599Z,17.5
2023-08-15T05:25:37.528Z,17.5
2023-08-15T05:27:41.437Z,17.5
2023-08-15T05:31:52.073Z,17.6
2023-08-15T05:33:56.012Z,17.8
2023-08-15T05:35:59.937Z,18.9
2023-08-15T05:37:03.286Z,20.2
2023-08-15T05:39:07.202Z,20.8
2023-08-15T05:43:15.041Z,21.3
2023-08-15T05:45:21.776Z,21.2
2023-08-15T05:47:25.752Z,20.3
2023-08-15T05:51:33.516Z,20.7
2023-08-15T05:53:37.429Z,21.6
2023-08-15T05:57:45.244Z,20.1
2023-08-15T05:59:51.996Z,19.1
2023-08-15T06:01:55.879Z,19.2
2023-08-15T06:16:26.066Z,19.1
2023-08-15T06:18:29.951Z,19.1
2023-08-15T06:22:37.773Z,19.3
2023-08-15T06:24:41.667Z,19.4
2023-08-15T06:26:45.590Z,19.4
2023-08-15T06:28:52.363Z,19.6
2023-08-15T06:33:00.205Z,19.6
2023-08-15T06:34:03.535Z,19.6
2023-08-15T06:36:07.432Z,19.5
2023-08-15T06:38:11.359Z,19.6
2023-08-15T06:40:15.265Z,19.7
2023-08-15T06:42:22.007Z,19.8
2023-08-15T06:44:27.563Z,19.9
2023-08-15T07:01:00.136Z,20.6
2023-08-15T07:05:07.878Z,20.5
2023-08-15T07:07:11.790Z,21.3
2023-08-15T07:13:26.335Z,24.1
2023-08-15T07:15:30.195Z,24.7
2023-08-15T07:17:34.129Z,25.1
2023-08-15T07:19:37.967Z,25.7
2023-08-15T07:21:41.831Z,25.5
2023-08-15T07:23:45.711Z,25.3
2023-08-15T07:30:00.167Z,24.3
2023-08-15T07:31:03.440Z,24.1
2023-08-15T07:35:11.118Z,24.9
2023-08-15T07:37:14.943Z,25.2
2023-08-15T07:39:21.617Z,25.6
2023-08-15T07:47:36.852Z,26.3
2023-08-15T07:49:40.637Z,26.1
2023-08-15T07:51:44.389Z,26.3
2023-08-15T07:53:51.058Z,24.9
2023-08-15T07:57:58.599Z,24.6
2023-08-15T08:08:20.322Z,23.1
2023-08-15T08:10:24.095Z,23.6
2023-08-15T08:22:49.649Z,24.6
2023-08-15T08:24:53.393Z,24.4
2023-08-15T08:26:57.180Z,24.3
2023-08-15T08:29:26.684Z,24.2
2023-08-15T08:52:13.985Z,23.4
2023-08-15T08:54:22.430Z,23.5
2023-08-15T09:08:48.810Z,24.5
2023-08-15T09:10:52.668Z,24.1
2023-08-15T09:15:00.249Z,23.6
2023-08-15T09:17:04.039Z,23.1
2023-08-15T09:19:10.704Z,22.7
2023-08-15T09:24:21.654Z,22.8
2023-08-15T09:26:25.494Z,23.4
2023-08-15T09:28:29.321Z,24.1
2023-08-15T09:36:47.415Z,25.2
2023-08-15T09:38:51.209Z,25.1
2023-08-15T09:47:09.293Z,25.9
2023-08-15T09:49:13.065Z,26.1
2023-08-15T09:51:16.802Z,25.1
2023-08-15T09:53:20.577Z,24.6
2023-08-15T09:55:24.332Z,24.2
2023-08-15T09:57:28.118Z,24.3
2023-08-15T09:59:31.933Z,23.8
2023-08-15T10:01:38.549Z,23.9
2023-08-15T10:05:46.178Z,24.4
2023-08-15T10:07:49.908Z,24.2
2023-08-15T10:09:53.696Z,24
2023-08-15T10:11:57.519Z,23.7
2023-08-15T10:14:01.292Z,23.5
2023-08-15T10:16:07.995Z,23.6
2023-08-15T10:18:13.934Z,23.7
2023-08-15T10:20:15.613Z,23.6
2023-08-15T10:31:40.805Z,24.1
2023-08-15T10:37:52.268Z,25.6
2023-08-15T10:39:56.083Z,25.9
2023-08-15T10:41:59.889Z,26
2023-08-15T10:44:06.550Z,25.5
2023-08-15T10:50:17.993Z,24.9
2023-08-15T10:52:22.064Z,25.4
2023-08-15T10:54:25.574Z,26.1
2023-08-15T10:56:29.385Z,27.1
2023-08-15T10:58:36.011Z,27.4
2023-08-15T11:00:39.789Z,27.4
2023-08-15T11:02:43.627Z,27.5
2023-08-15T11:04:47.367Z,27.5
2023-08-15T11:06:51.085Z,28.6
2023-08-15T11:08:54.873Z,28.2
2023-08-15T11:10:58.607Z,27
2023-08-15T11:15:08.957Z,25.8
2023-08-15T11:17:12.718Z,25.5
2023-08-15T11:18:17.704Z,25.4
2023-08-15T11:22:23.498Z,26.3
2023-08-15T11:24:27.258Z,26.1
2023-08-15T11:26:33.861Z,26
2023-08-15T11:28:37.623Z,25.6
2023-08-15T11:32:45.170Z,24.8
2023-08-15T11:34:48.875Z,24.7
2023-08-15T11:36:52.650Z,24.6
2023-08-15T11:38:56.425Z,24.6
2023-08-15T11:41:03.057Z,24.2
2023-08-15T11:45:10.619Z,24.4
2023-08-15T11:47:14.394Z,24.5
2023-08-15T11:49:18.197Z,24.8
2023-08-15T11:51:22.069Z,24.9
2023-08-15T11:53:25.861Z,25
2023-08-15T11:55:32.449Z,25.4
2023-08-15T11:57:36.317Z,25.5
2023-08-15T12:01:43.871Z,26.3
2023-08-15T12:03:47.692Z,25.9
2023-08-15T12:05:51.449Z,25.4
2023-08-15T12:07:49.101Z,25.6
2023-08-15T12:09:55.776Z,26
2023-08-15T12:11:59.565Z,26.2
2023-08-15T12:14:03.338Z,26.1
2023-08-15T12:20:40.443Z,26.5
2023-08-15T12:22:47.904Z,25.9
2023-08-15T12:24:50.875Z,25.7
2023-08-15T12:26:54.674Z,25.8
2023-08-15T12:28:58.438Z,26.1
2023-08-15T12:31:02.339Z,26.3
2023-08-15T12:33:06.076Z,26.3
2023-08-15T12:35:09.792Z,26.4
2023-08-15T12:37:16.456Z,26.7
2023-08-15T12:41:24.026Z,26.8
2023-08-15T12:45:31.577Z,26.5
2023-08-15T12:55:53.327Z,25.5
2023-08-15T13:02:04.628Z,26.1
2023-08-15T13:04:08.628Z,25.9
2023-08-15T13:10:22.591Z,25.6
2023-08-15T13:21:48.359Z,27
2023-08-15T13:23:52.122Z,26.7
2023-08-15T13:25:55.884Z,27.5
2023-08-15T13:27:59.667Z,27.6
2023-08-15T13:30:03.400Z,26.6
2023-08-15T13:32:07.323Z,26.7
2023-08-15T13:40:25.146Z,25.6
2023-08-15T13:46:36.532Z,26.9
2023-08-15T14:07:20.411Z,26.8
2023-08-15T14:08:23.252Z,26.8
2023-08-15T14:10:27.018Z,27
2023-08-15T14:12:30.822Z,27.2
2023-08-15T14:14:34.583Z,26.9
2023-08-15T14:16:41.296Z,27.4
2023-08-15T14:18:44.991Z,27.5
2023-08-15T14:20:48.732Z,27.7
2023-08-15T14:22:52.519Z,26.9
2023-08-15T14:31:10.473Z,25.6
2023-08-15T14:33:14.240Z,25.7
2023-08-15T14:37:21.743Z,25.8
2023-08-15T14:39:25.552Z,25.9
2023-08-15T14:41:29.296Z,26
2023-08-15T14:47:43.541Z,24.9
2023-08-15T14:49:47.318Z,24.7
2023-08-15T14:51:51.172Z,24.9
2023-08-15T14:53:54.869Z,25.1
2023-08-15T14:56:00.211Z,25.5
2023-08-15T14:58:03.960Z,26.1
2023-08-15T15:00:10.635Z,25.9
2023-08-15T15:04:18.190Z,25.7
2023-08-15T15:05:21.529Z,26.4
2023-08-15T15:07:25.353Z,26.5
2023-08-15T15:09:29.138Z,26.8
2023-08-15T15:11:32.940Z,26.7
2023-08-15T15:13:39.600Z,26.5
2023-08-15T15:17:47.221Z,26.3
2023-08-15T15:19:50.992Z,26.2
2023-08-15T15:21:54.783Z,26.2
2023-08-15T15:23:58.567Z,26.1
2023-08-15T15:26:02.429Z,25.8
2023-08-15T15:30:12.850Z,26.6
2023-08-15T15:32:16.632Z,26.8
2023-08-15T15:46:54.485Z,25.3
2023-08-15T15:52:57.819Z,25.1
2023-08-15T15:55:01.621Z,25.4
2023-08-15T15:57:08.258Z,25.2
2023-08-15T15:59:12.100Z,25
2023-08-15T16:01:15.974Z,25.1
2023-08-15T16:03:45.472Z,24.9
2023-08-15T16:07:53.081Z,24.8
2023-08-15T16:09:59.752Z,24.6
2023-08-15T16:12:03.548Z,24.7
2023-08-15T16:14:07.383Z,24.9
2023-08-15T16:16:11.300Z,24.8
2023-08-15T16:20:18.836Z,24.9
2023-08-15T16:22:23.071Z,25.2
2023-08-15T16:24:29.356Z,25.1
2023-08-15T16:28:37.007Z,24.8
2023-08-15T16:32:44.703Z,24.6
2023-08-15T16:38:58.980Z,24.8
2023-08-15T16:45:10.510Z,25.1
2023-08-15T16:47:14.375Z,24.9
2023-08-15T16:49:18.178Z,24.8
2023-08-15T16:51:21.998Z,24.9
2023-08-15T16:53:28.704Z,24.8
2023-08-15T16:55:32.533Z,24.7
2023-08-15T16:58:39.705Z,24.2
2023-08-15T17:02:47.462Z,23.9
2023-08-15T17:04:51.218Z,23.7
2023-08-15T17:09:01.770Z,23.4
2023-08-15T17:11:05.592Z,23.5
2023-08-15T17:15:13.308Z,23.5
2023-08-15T17:17:17.156Z,23.3
2023-08-15T17:19:21.018Z,23.4
2023-08-15T17:23:31.574Z,23.4
2023-08-15T17:25:35.449Z,23.4
2023-08-15T17:38:01.610Z,23.2
2023-08-15T17:40:05.647Z,22.7
2023-08-15T17:55:38.719Z,21.9
2023-08-15T17:57:42.577Z,21.9
2023-08-15T17:59:46.455Z,21.8
2023-08-15T18:01:50.426Z,21.8
2023-08-15T18:03:57.169Z,21.6
2023-08-15T18:06:00.956Z,21.5
2023-08-15T18:08:04.845Z,21.5
2023-08-15T18:10:08.731Z,21.5
2023-08-15T18:12:12.619Z,21.4
2023-08-15T18:14:16.520Z,21.2
2023-08-15T18:16:20.419Z,21.1
2023-08-15T18:18:27.146Z,21.1
2023-08-15T18:20:31.031Z,21.1
2023-08-15T18:22:34.912Z,21
2023-08-15T18:24:38.816Z,20.9
2023-08-15T18:26:42.715Z,20.9
2023-08-15T18:28:46.643Z,20.8
2023-08-15T18:35:01.157Z,20.7
2023-08-15T18:37:05.048Z,20.6
2023-08-15T18:39:08.956Z,20.5
2023-08-15T18:41:12.841Z,20.5
2023-08-15T18:45:20.729Z,20.4
2023-08-15T18:47:27.473Z,20.3
2023-08-15T18:49:31.327Z,20.2
2023-08-15T18:51:35.204Z,20.2
2023-08-15T18:54:42.465Z,20.1
2023-08-15T18:58:50.297Z,20.1
2023-08-15T19:00:57.037Z,19.9
2023-08-15T19:03:00.985Z,19.9
2023-08-15T19:05:04.865Z,19.8
2023-08-15T19:07:08.757Z,19.7
2023-08-15T19:09:13.429Z,19.6
2023-08-15T19:11:17.348Z,19.6
2023-08-15T19:13:21.259Z,19.5
2023-08-15T19:15:27.998Z,19.4
2023-08-15T19:17:31.953Z,19.4
2023-08-15T19:19:35.807Z,19.3
2023-08-15T19:21:39.756Z,19.3
2023-08-15T19:23:43.667Z,19.3
2023-08-15T19:25:47.589Z,19.3
2023-08-15T19:27:51.513Z,19.2
2023-08-15T19:32:02.153Z,19.2
2023-08-15T19:34:06.088Z,19.1
2023-08-15T19:36:10.003Z,19.2
2023-08-15T19:40:17.851Z,19.1
2023-08-15T19:55:13.868Z,18.7
2023-08-15T19:57:20.605Z,18.7
2023-08-15T19:59:24.538Z,18.7
2023-08-15T20:01:28.494Z,18.7
2023-08-15T20:05:36.302Z,18.7
2023-08-15T20:07:40.224Z,18.7
2023-08-15T20:09:55.163Z,18.7
2023-08-15T20:13:54.777Z,18.5
2023-08-15T20:15:58.710Z,18.5
2023-08-15T20:20:06.539Z,18.4
2023-08-15T20:36:40.783Z,18.3
2023-08-15T20:40:51.412Z,18.3
2023-08-15T20:42:55.353Z,18.3
2023-08-15T20:44:59.293Z,18.2
2023-08-15T20:46:02.699Z,18.2
2023-08-15T20:48:06.636Z,18.1
2023-08-15T20:50:10.494Z,18.1
2023-08-15T20:52:15.918Z,18
2023-08-15T20:54:22.654Z,17.9
2023-08-15T20:56:26.553Z,17.8
2023-08-15T20:58:30.923Z,17.8
2023-08-15T21:00:34.469Z,17.8
2023-08-15T21:04:42.261Z,17.8
2023-08-15T21:06:46.232Z,17.8
2023-08-15T21:15:04.722Z,17.9
2023-08-15T21:21:16.493Z,17.7
2023-08-15T21:23:23.270Z,17.7
2023-08-15T21:29:35.041Z,17.7
2023-08-15T21:33:42.886Z,17.6
2023-08-15T21:35:46.798Z,17.6
2023-08-15T21:37:53.565Z,17.5
2023-08-15T21:39:57.492Z,17.5
2023-08-15T21:42:01.422Z,17.6
2023-08-15T21:43:04.801Z,17.5
2023-08-15T21:47:12.693Z,17.6
2023-08-15T21:49:16.555Z,17.6
2023-08-15T21:59:39.001Z,17.7
2023-08-15T22:01:43.012Z,17.7
2023-08-15T22:03:47.037Z,17.7
2023-08-15T22:05:53.635Z,17.7
2023-08-15T22:07:57.562Z,17.6
2023-08-15T22:12:05.400Z,17.6
2023-08-15T22:16:13.279Z,17.7
2023-08-15T22:18:20.720Z,17.7
2023-08-15T22:20:23.939Z,17.7
2023-08-15T22:22:27.867Z,17.7
2023-08-15T22:24:31.817Z,17.7
2023-08-15T22:26:35.711Z,17.7
2023-08-15T22:28:39.601Z,17.6
2023-08-15T22:30:43.555Z,17.5
2023-08-15T22:32:47.576Z,17.4
2023-08-15T22:36:58.108Z,17.3
2023-08-15T22:39:02.064Z,17.3
2023-08-15T22:40:05.441Z,17.3
2023-08-15T22:44:13.268Z,17.3
2023-08-15T22:46:17.267Z,17.3
2023-08-15T22:48:23.957Z,17.3
2023-08-15T22:50:27.880Z,17.3
2023-08-15T22:52:31.803Z,17.4
2023-08-15T22:54:35.721Z,17.4
2023-08-15T22:58:43.589Z,17.4
2023-08-15T23:07:02.153Z,17.2
2023-08-15T23:11:09.944Z,17.1
2023-08-15T23:15:17.795Z,16.9
2023-08-15T23:38:32.338Z,16.3
2023-08-15T23:40:36.281Z,16.3
2023-08-15T23:50:58.692Z,15.9
2023-08-15T23:53:02.618Z,15.9
2023-08-15T23:55:06.545Z,15.9
2023-08-15T23:57:10.483Z,16
